West Palm Beach, FL (33406)

3:20 PM EST on February 26, 2017 (GMT -0500)
Downtown | | Change Station

Elev 0 ft 26.71 °N, 80.05 °W | Updated 9 minutes ago

Mostly Cloudy
Mostly Cloudy
75.6 °F
Feels Like 77 °F
N
0.0
Wind Variable Wind from North
Gusts 0.6 mph

Today
High -- | Low -- °F
--% Chance of Precip.
Yesterday
High -- | Low -- °F
Precip. -- in
Pressure 30.10 in
Visibility 10.0 miles
Clouds Scattered Clouds 3200 ft
Mostly Cloudy 6000 ft
Heat Index 77 °F
Dew Point 67 °F
Humidity 74%
Rainfall Not available.
Snow Depth Not available.
6:46 AM 6:19 PM
New Moon, 0% visible
METAR KPBI 261953Z 02013G19KT 10SM SCT032 BKN060 26/17 A3010 RMK AO2 SLP193 T02610167
Pressure 30.10 in
Visibility 10.0 miles
Clouds Scattered Clouds 3200 ft
Mostly Cloudy 6000 ft
Heat Index 77 °F
Dew Point 67 °F
Humidity 74%
Rainfall Not available.
Snow Depth Not available.
6:46 AM 6:19 PM
New Moon, 0% visible
METAR KPBI 261953Z 02013G19KT 10SM SCT032 BKN060 26/17 A3010 RMK AO2 SLP193 T02610167

Get Your Daily Forecast Email!

Thanks for signing up!

Be on the lookout for a verification email in your inbox.

You'll start receiving the daily forecast at 8 AM.

×

10-Day Weather Forecast

Almanac

Astronomy

Feb. 26, 2017 Rise Set
Actual Time
Civil Twilight
Nautical Twilight
Astronomical Twilight
Moon
Length of Visible Light
Length of Day
Tomorrow will be .
, % of the Moon is Illuminated

Today's Extremes

State Highs State Lows

Community

WunderPhotos

Upload Photos

1,962,540 photos uploaded!

WunderBlog® & News

Nearby

Air Quality

  Air Quality AQ Index Pollutant
Not available.

Snow Depth

Station Depth Elevation

Earthquake Activity

City Distance Mag. Time & Date
Minimum magnitude displayed is 2.5.

Coastal Water Temperatures

Place Temperature

Stations

Nearby Weather Stations

Station Location Temp. Windchill Dew Point Humidity Wind Precip. Elev Updated Type
                   

Watches & Warnings

There are currently no watches in effect.